Time,TemperatureF,DewpointF,PressureIn,WindDirection,WindDirectionDegrees,WindSpeedMPH,WindSpeedGustMPH,Humidity,HourlyPrecipIn,Conditions,Clouds,dailyrainin,SoftwareType,DateUTC
2017-03-29 00:01:00,68.0,64.6,30.03,NW,315,2.0,2.0,89,0.00,,CLR,0.00,VWS V15.00,2017-03-29 04:01:00,
2017-03-29 00:06:00,68.0,64.6,30.04,NW,315,2.0,2.0,89,0.00,,CLR,0.00,VWS V15.00,2017-03-29 04:06:00,
2017-03-29 00:11:00,68.0,64.6,30.03,NW,315,3.0,3.0,89,0.00,,CLR,0.00,VWS V15.00,2017-03-29 04:11:00,
2017-03-29 00:16:00,68.0,65.0,30.03,NNW,337,3.0,4.0,90,0.00,,CLR,0.00,VWS V15.00,2017-03-29 04:16:00,
2017-03-29 00:21:00,68.0,65.0,30.03,NNW,337,2.0,4.0,90,0.00,,CLR,0.00,VWS V15.00,2017-03-29 04:21:00,
2017-03-29 00:26:00,68.0,65.0,30.04,South,180,5.0,5.0,90,0.00,,CLR,0.00,VWS V15.00,2017-03-29 04:26:00,
2017-03-29 00:31:00,68.0,65.0,30.04,ESE,112,9.0,13.0,90,0.00,,CLR,0.00,VWS V15.00,2017-03-29 04:31:00,
2017-03-29 00:36:00,68.0,65.0,30.05,ESE,112,4.0,5.0,90,0.00,,CLR,0.00,VWS V15.00,2017-03-29 04:36:00,
2017-03-29 00:42:00,68.0,65.3,30.05,ESE,112,6.0,9.0,91,0.00,,CLR,0.00,VWS V15.00,2017-03-29 04:42:00,
2017-03-29 00:47:00,67.0,64.3,30.04,SSE,157,3.0,4.0,91,0.00,,CLR,0.00,VWS V15.00,2017-03-29 04:47:00,
2017-03-29 00:52:00,67.0,64.3,30.04,ESE,112,3.0,3.0,91,0.00,,CLR,0.00,VWS V15.00,2017-03-29 04:52:00,
2017-03-29 00:57:00,67.0,64.3,30.04,ESE,112,6.0,6.0,91,0.00,,CLR,0.00,VWS V15.00,2017-03-29 04:57:00,
2017-03-29 01:02:00,67.0,64.3,30.04,ESE,112,2.0,2.0,91,0.00,,CLR,0.00,VWS V15.00,2017-03-29 05:02:00,
2017-03-29 01:07:00,67.0,64.3,30.04,ESE,112,5.0,5.0,91,0.00,,CLR,0.00,VWS V15.00,2017-03-29 05:07:00,
2017-03-29 01:12:00,67.0,64.3,30.04,ESE,112,2.0,5.0,91,0.00,,CLR,0.00,VWS V15.00,2017-03-29 05:12:00,
2017-03-29 01:17:00,67.0,64.3,30.04,ESE,112,6.0,6.0,91,0.00,,CLR,0.00,VWS V15.00,2017-03-29 05:17:00,
2017-03-29 01:22:00,67.0,64.3,30.03,ESE,112,5.0,6.0,91,0.00,,CLR,0.00,VWS V15.00,2017-03-29 05:22:00,
2017-03-29 01:27:00,67.0,64.3,30.04,ESE,112,4.0,4.0,91,0.00,,CLR,0.00,VWS V15.00,2017-03-29 05:27:00,
2017-03-29 04:27:00,65.0,61.7,29.99,North,360,2.0,2.0,89,0.00,,CLR,0.00,VWS V15.00,2017-03-29 08:27:00,
2017-03-29 04:32:00,65.0,61.7,30.00,North,360,2.0,2.0,89,0.00,,CLR,0.00,VWS V15.00,2017-03-29 08:32:00,
2017-03-29 04:37:00,65.0,61.7,30.00,North,360,3.0,4.0,89,0.00,,CLR,0.00,VWS V15.00,2017-03-29 08:37:00,
2017-03-29 04:42:00,65.0,61.7,30.00,North,360,3.0,4.0,89,0.00,,CLR,0.00,VWS V15.00,2017-03-29 08:42:00,
2017-03-29 04:47:00,65.0,61.7,30.00,NNW,337,3.0,3.0,89,0.00,,CLR,0.00,VWS V15.00,2017-03-29 08:47:00,
2017-03-29 04:52:00,65.0,61.7,30.00,NNE,22,3.0,5.0,89,0.00,,CLR,0.00,VWS V15.00,2017-03-29 08:52:00,
2017-03-29 04:57:00,65.0,61.7,29.99,NNE,22,3.0,4.0,89,0.00,,CLR,0.00,VWS V15.00,2017-03-29 08:57:00,
2017-03-29 05:02:00,65.0,61.4,29.99,North,360,6.0,7.0,88,0.00,,CLR,0.00,VWS V15.00,2017-03-29 09:02:00,
2017-03-29 05:07:00,65.0,61.4,29.99,North,360,4.0,4.0,88,0.00,,CLR,0.00,VWS V15.00,2017-03-29 09:07:00,
2017-03-29 05:12:00,65.0,61.4,29.99,NNE,22,2.0,4.0,88,0.00,,CLR,0.00,VWS V15.00,2017-03-29 09:12:00,
2017-03-29 05:17:00,65.0,61.0,29.99,NNE,22,5.0,5.0,87,0.00,,CLR,0.00,VWS V15.00,2017-03-29 09:17:00,
2017-03-29 05:22:00,65.0,61.0,29.99,NNE,22,4.0,6.0,87,0.00,,CLR,0.00,VWS V15.00,2017-03-29 09:22:00,
2017-03-29 05:27:00,65.0,60.7,30.00,NNE,22,2.0,5.0,86,0.00,,CLR,0.00,VWS V15.00,2017-03-29 09:27:00,
2017-03-29 05:32:00,65.0,60.7,29.99,South,180,3.0,3.0,86,0.00,,CLR,0.00,VWS V15.00,2017-03-29 09:32:00,
2017-03-29 05:37:00,65.0,60.7,30.00,NNE,22,4.0,6.0,86,0.00,,CLR,0.00,VWS V15.00,2017-03-29 09:37:00,
2017-03-29 05:42:00,65.0,60.4,30.00,South,180,2.0,5.0,85,0.00,,CLR,0.00,VWS V15.00,2017-03-29 09:42:00,
2017-03-29 05:47:00,65.0,60.4,29.99,South,180,3.0,4.0,85,0.00,,CLR,0.00,VWS V15.00,2017-03-29 09:47:00,
2017-03-29 05:52:00,65.0,60.4,30.00,South,180,3.0,3.0,85,0.00,,CLR,0.00,VWS V15.00,2017-03-29 09:52:00,
2017-03-29 05:57:00,65.0,60.4,30.00,South,180,2.0,3.0,85,0.00,,CLR,0.00,VWS V15.00,2017-03-29 09:57:00,
2017-03-29 06:02:00,65.0,60.4,30.00,NNE,22,3.0,5.0,85,0.00,,CLR,0.00,VWS V15.00,2017-03-29 10:02:00,
2017-03-29 06:07:00,65.0,60.7,30.01,NNE,22,4.0,5.0,86,0.00,,CLR,0.00,VWS V15.00,2017-03-29 10:07:00,
2017-03-29 06:12:00,65.0,60.7,30.01,NNE,22,3.0,3.0,86,0.00,,CLR,0.00,VWS V15.00,2017-03-29 10:12:00,
2017-03-29 06:17:00,65.0,60.7,30.01,NNE,22,4.0,4.0,86,0.00,,CLR,0.00,VWS V15.00,2017-03-29 10:17:00,
2017-03-29 06:22:00,65.0,60.7,30.00,NNE,22,3.0,4.0,86,0.00,,CLR,0.00,VWS V15.00,2017-03-29 10:22:00,
2017-03-29 06:27:00,65.0,60.7,30.01,NNE,22,2.0,4.0,86,0.00,,CLR,0.00,VWS V15.00,2017-03-29 10:27:00,
2017-03-29 06:32:00,65.0,60.7,30.00,South,180,3.0,3.0,86,0.00,,CLR,0.00,VWS V15.00,2017-03-29 10:32:00,
2017-03-29 06:37:00,65.0,60.7,30.01,South,180,4.0,6.0,86,0.00,,CLR,0.00,VWS V15.00,2017-03-29 10:37:00,
2017-03-29 06:42:00,64.0,59.7,30.01,South,180,3.0,4.0,86,0.00,,CLR,0.00,VWS V15.00,2017-03-29 10:42:00,
2017-03-29 06:47:00,64.0,60.1,30.01,NNE,22,4.0,5.0,87,0.00,,CLR,0.00,VWS V15.00,2017-03-29 10:47:00,
2017-03-29 06:52:00,65.0,61.0,30.01,South,180,3.0,3.0,87,0.00,,CLR,0.00,VWS V15.00,2017-03-29 10:52:00,
2017-03-29 06:57:00,65.0,61.0,30.01,NNE,22,3.0,3.0,87,0.00,,CLR,0.00,VWS V15.00,2017-03-29 10:57:00,
2017-03-29 07:02:00,65.0,61.0,30.01,South,180,4.0,4.0,87,0.00,,CLR,0.00,VWS V15.00,2017-03-29 11:02:00,
2017-03-29 07:07:00,65.0,61.0,30.01,ESE,112,5.0,5.0,87,0.00,,CLR,0.00,VWS V15.00,2017-03-29 11:07:00,
2017-03-29 07:12:00,64.0,60.1,30.01,South,180,3.0,6.0,87,0.00,,CLR,0.00,VWS V15.00,2017-03-29 11:12:00,
2017-03-29 07:17:00,64.0,60.1,30.02,South,180,1.0,3.0,87,0.00,,CLR,0.00,VWS V15.00,2017-03-29 11:17:00,
2017-03-29 07:22:00,64.0,60.1,30.02,South,180,2.0,3.0,87,0.00,,CLR,0.00,VWS V15.00,2017-03-29 11:22:00,
2017-03-29 07:27:00,64.0,60.1,30.02,South,180,2.0,4.0,87,0.00,,CLR,0.00,VWS V15.00,2017-03-29 11:27:00,
2017-03-29 07:32:00,64.0,60.4,30.02,ESE,112,3.0,3.0,88,0.00,,CLR,0.00,VWS V15.00,2017-03-29 11:32:00,
2017-03-29 07:37:00,64.0,60.4,30.02,South,180,4.0,4.0,88,0.00,,CLR,0.00,VWS V15.00,2017-03-29 11:37:00,
2017-03-29 07:42:00,64.0,60.4,30.03,South,180,3.0,4.0,88,0.00,,CLR,0.00,VWS V15.00,2017-03-29 11:42:00,
2017-03-29 07:47:00,64.0,60.4,30.02,South,180,4.0,4.0,88,0.00,,CLR,0.00,VWS V15.00,2017-03-29 11:47:00,
2017-03-29 07:52:00,64.0,60.4,30.02,ESE,112,4.0,4.0,88,0.00,,CLR,0.00,VWS V15.00,2017-03-29 11:52:00,
2017-03-29 07:57:00,64.0,60.4,30.02,ESE,112,4.0,5.0,88,0.00,,CLR,0.00,VWS V15.00,2017-03-29 11:57:00,
2017-03-29 07:59:00,64.0,60.4,30.02,ESE,112,4.0,4.0,88,0.00,,CLR,0.00,VWS V15.00,2017-03-29 11:59:00,
2017-03-29 08:04:00,64.0,60.4,30.02,ESE,112,4.0,4.0,88,0.00,,CLR,0.00,VWS V15.00,2017-03-29 12:04:00,
2017-03-29 08:09:00,64.0,60.4,30.03,ESE,112,3.0,4.0,88,0.00,,CLR,0.00,VWS V15.00,2017-03-29 12:09:00,
2017-03-29 08:14:00,65.0,61.4,30.02,ESE,112,2.0,4.0,88,0.00,,CLR,0.00,VWS V15.00,2017-03-29 12:14:00,
2017-03-29 08:19:00,65.0,61.4,30.03,ESE,112,4.0,4.0,88,0.00,,CLR,0.00,VWS V15.00,2017-03-29 12:19:00,
2017-03-29 08:24:00,65.0,61.4,30.03,ESE,112,3.0,3.0,88,0.00,,CLR,0.00,VWS V15.00,2017-03-29 12:24:00,
2017-03-29 08:29:00,66.0,62.0,30.03,ESE,112,3.0,4.0,87,0.00,,CLR,0.00,VWS V15.00,2017-03-29 12:29:00,
2017-03-29 08:34:00,66.0,61.7,30.03,ESE,112,4.0,4.0,86,0.00,,CLR,0.00,VWS V15.00,2017-03-29 12:34:00,
2017-03-29 08:39:00,67.0,62.3,30.03,ESE,112,4.0,6.0,85,0.00,,CLR,0.00,VWS V15.00,2017-03-29 12:39:00,
2017-03-29 08:44:00,67.0,62.3,30.03,ESE,112,2.0,6.0,85,0.00,,CLR,0.00,VWS V15.00,2017-03-29 12:44:00,
2017-03-29 08:49:00,68.0,63.0,30.03,ESE,112,7.0,7.0,84,0.00,,CLR,0.00,VWS V15.00,2017-03-29 12:49:00,
2017-03-29 08:54:00,68.0,63.0,30.03,ESE,112,4.0,4.0,84,0.00,,CLR,0.00,VWS V15.00,2017-03-29 12:54:00,
2017-03-29 08:59:00,69.0,63.6,30.04,ESE,112,6.0,6.0,83,0.00,,CLR,0.00,VWS V15.00,2017-03-29 12:59:00,
2017-03-29 09:04:00,69.0,63.6,30.04,ESE,112,4.0,7.0,83,0.00,,CLR,0.00,VWS V15.00,2017-03-29 13:04:00,
2017-03-29 09:09:00,69.0,63.6,30.04,ESE,112,4.0,6.0,83,0.00,,CLR,0.00,VWS V15.00,2017-03-29 13:09:00,
2017-03-29 09:14:00,70.0,64.6,30.04,ESE,112,4.0,7.0,83,0.00,,CLR,0.00,VWS V15.00,2017-03-29 13:14:00,
2017-03-29 09:19:00,70.0,64.3,30.04,SE,135,3.0,5.0,82,0.00,,CLR,0.00,VWS V15.00,2017-03-29 13:19:00,
2017-03-29 09:24:00,71.0,65.2,30.04,ESE,112,3.0,3.0,82,0.00,,CLR,0.00,VWS V15.00,2017-03-29 13:24:00,
2017-03-29 09:29:00,71.0,64.9,30.05,ESE,112,3.0,4.0,81,0.00,,CLR,0.00,VWS V15.00,2017-03-29 13:29:00,
2017-03-29 09:34:00,72.0,65.5,30.04,ESE,112,5.0,7.0,80,0.00,,CLR,0.00,VWS V15.00,2017-03-29 13:34:00,
2017-03-29 09:39:00,72.0,65.5,30.05,SSW,202,0.0,5.0,80,0.00,,CLR,0.00,VWS V15.00,2017-03-29 13:39:00,
2017-03-29 09:44:00,72.0,65.5,30.05,South,180,3.0,4.0,80,0.00,,CLR,0.00,VWS V15.00,2017-03-29 13:44:00,
2017-03-29 09:49:00,73.0,65.7,30.05,ESE,112,6.0,8.0,78,0.00,,CLR,0.00,VWS V15.00,2017-03-29 13:49:00,
2017-03-29 09:54:00,73.0,65.4,30.05,SE,135,6.0,8.0,77,0.00,,CLR,0.00,VWS V15.00,2017-03-29 13:54:00,
2017-03-29 09:59:00,73.0,65.4,30.05,ESE,112,5.0,8.0,77,0.00,,CLR,0.00,VWS V15.00,2017-03-29 13:59:00,
2017-03-29 10:04:00,74.0,66.3,30.05,SE,135,7.0,7.0,77,0.00,,CLR,0.00,VWS V15.00,2017-03-29 14:04:00,
2017-03-29 10:09:00,74.0,66.0,30.05,SE,135,2.0,4.0,76,0.00,,CLR,0.00,VWS V15.00,2017-03-29 14:09:00,
2017-03-29 10:14:00,75.0,66.6,30.06,SE,135,3.0,8.0,75,0.00,,CLR,0.00,VWS V15.00,2017-03-29 14:14:00,
2017-03-29 10:19:00,75.0,66.2,30.05,SE,135,5.0,6.0,74,0.00,,CLR,0.00,VWS V15.00,2017-03-29 14:19:00,
2017-03-29 10:24:00,76.0,66.7,30.06,ESE,112,0.0,4.0,73,0.00,,CLR,0.00,VWS V15.00,2017-03-29 14:24:00,
2017-03-29 10:29:00,77.0,66.9,30.06,ESE,112,7.0,8.0,71,0.00,,CLR,0.00,VWS V15.00,2017-03-29 14:29:00,
2017-03-29 10:34:00,77.0,66.5,30.06,SE,135,6.0,9.0,70,0.00,,CLR,0.00,VWS V15.00,2017-03-29 14:34:00,
2017-03-29 10:39:00,76.0,65.5,30.06,ESE,112,7.0,8.0,70,0.00,,CLR,0.00,VWS V15.00,2017-03-29 14:39:00,
2017-03-29 10:44:00,76.0,65.5,30.06,ESE,112,1.0,3.0,70,0.00,,CLR,0.00,VWS V15.00,2017-03-29 14:44:00,
2017-03-29 10:49:00,77.0,66.5,30.06,ESE,112,5.0,8.0,70,0.00,,CLR,0.00,VWS V15.00,2017-03-29 14:49:00,
2017-03-29 10:54:00,77.0,66.1,30.06,SE,135,6.0,8.0,69,0.00,,CLR,0.00,VWS V15.00,2017-03-29 14:54:00,
2017-03-29 10:59:00,77.0,66.1,30.06,ESE,112,7.0,9.0,69,0.00,,CLR,0.00,VWS V15.00,2017-03-29 14:59:00,
2017-03-29 11:04:00,77.0,66.1,30.06,ESE,112,5.0,6.0,69,0.00,,FEW200,0.00,VWS V15.00,2017-03-29 15:04:00,
2017-03-29 11:09:00,77.0,65.6,30.06,SE,135,4.0,5.0,68,0.00,,FEW200,0.00,VWS V15.00,2017-03-29 15:09:00,
2017-03-29 11:15:00,78.0,65.7,30.06,SSW,202,1.0,7.0,66,0.00,,FEW200,0.00,VWS V15.00,2017-03-29 15:15:00,
2017-03-29 11:20:00,79.0,65.8,30.06,ESE,112,5.0,11.0,64,0.00,,FEW200,0.00,VWS V15.00,2017-03-29 15:20:00,
2017-03-29 11:25:00,79.0,65.3,30.06,ESE,112,8.0,12.0,63,0.00,,FEW200,0.00,VWS V15.00,2017-03-29 15:25:00,
2017-03-29 11:30:00,78.0,64.4,30.06,SE,135,4.0,4.0,63,0.00,,FEW200,0.00,VWS V15.00,2017-03-29 15:30:00,
2017-03-29 11:35:00,78.0,64.4,30.06,ESE,112,5.0,7.0,63,0.00,,FEW200,0.00,VWS V15.00,2017-03-29 15:35:00,
2017-03-29 11:40:00,79.0,64.9,30.06,SSW,202,4.0,5.0,62,0.00,,FEW200,0.00,VWS V15.00,2017-03-29 15:40:00,
2017-03-29 11:45:00,79.0,64.4,30.05,ESE,112,7.0,9.0,61,0.00,,FEW200,0.00,VWS V15.00,2017-03-29 15:45:00,
2017-03-29 11:50:00,80.0,64.9,30.06,ESE,112,5.0,9.0,60,0.00,,FEW200,0.00,VWS V15.00,2017-03-29 15:50:00,
2017-03-29 11:55:00,80.0,64.4,30.05,ESE,112,4.0,9.0,59,0.00,,FEW200,0.00,VWS V15.00,2017-03-29 15:55:00,
2017-03-29 12:00:00,80.0,63.9,30.05,ESE,112,8.0,9.0,58,0.00,,FEW200,0.00,VWS V15.00,2017-03-29 16:00:00,
2017-03-29 12:05:00,79.0,63.0,30.05,ESE,112,4.0,6.0,58,0.00,,FEW200,0.00,VWS V15.00,2017-03-29 16:05:00,
2017-03-29 12:10:00,80.0,63.4,30.05,ESE,112,8.0,10.0,57,0.00,,FEW200,0.00,VWS V15.00,2017-03-29 16:10:00,
2017-03-29 12:15:00,80.0,62.4,30.04,ESE,112,3.0,6.0,55,0.00,,FEW200,0.00,VWS V15.00,2017-03-29 16:15:00,
2017-03-29 12:20:00,81.0,62.8,30.04,SE,135,3.0,8.0,54,0.00,,FEW200,0.00,VWS V15.00,2017-03-29 16:20:00,
2017-03-29 12:25:00,81.0,62.8,30.04,ESE,112,9.0,11.0,54,0.00,,FEW200,0.00,VWS V15.00,2017-03-29 16:25:00,
2017-03-29 12:30:00,81.0,62.3,30.04,ESE,112,4.0,8.0,53,0.00,,FEW200,0.00,VWS V15.00,2017-03-29 16:30:00,
2017-03-29 12:35:00,81.0,62.3,30.04,ESE,112,5.0,5.0,53,0.00,,FEW200,0.00,VWS V15.00,2017-03-29 16:35:00,
2017-03-29 12:40:00,82.0,62.7,30.03,SSE,157,5.0,8.0,52,0.00,,FEW200,0.00,VWS V15.00,2017-03-29 16:40:00,
2017-03-29 12:45:00,82.0,62.1,30.03,ESE,112,9.0,10.0,51,0.00,,FEW200,0.00,VWS V15.00,2017-03-29 16:45:00,
2017-03-29 12:55:00,83.0,60.7,30.03,SSE,157,5.0,6.0,47,0.00,,FEW200,0.00,VWS V15.00,2017-03-29 16:55:00,
2017-03-29 13:00:00,84.0,60.4,30.03,SSW,202,2.0,4.0,45,0.00,,SCT220,0.00,VWS V15.00,2017-03-29 17:00:00,
2017-03-29 13:05:00,85.0,61.3,30.02,ESE,112,5.0,13.0,45,0.00,,SCT220,0.00,VWS V15.00,2017-03-29 17:05:00,
2017-03-29 13:10:00,84.0,59.8,30.02,ESE,112,7.0,10.0,44,0.00,,SCT220,0.00,VWS V15.00,2017-03-29 17:10:00,
2017-03-29 13:15:00,83.0,58.9,30.02,ESE,112,0.0,4.0,44,0.00,,SCT220,0.00,VWS V15.00,2017-03-29 17:15:00,
2017-03-29 13:20:00,83.0,59.5,30.02,ESE,112,7.0,7.0,45,0.00,,SCT220,0.00,VWS V15.00,2017-03-29 17:20:00,
2017-03-29 13:25:00,84.0,59.8,30.02,ESE,112,9.0,9.0,44,0.00,,SCT220,0.00,VWS V15.00,2017-03-29 17:25:00,
2017-03-29 13:30:00,83.0,58.2,30.02,ESE,112,3.0,4.0,43,0.00,,SCT220,0.00,VWS V15.00,2017-03-29 17:30:00,
2017-03-29 13:35:00,84.0,58.5,30.02,SSW,202,0.0,4.0,42,0.00,,SCT220,0.00,VWS V15.00,2017-03-29 17:35:00,
2017-03-29 13:40:00,85.0,58.7,30.01,SSW,202,2.0,3.0,41,0.00,,SCT220,0.00,VWS V15.00,2017-03-29 17:40:00,
2017-03-29 13:45:00,85.0,58.7,30.01,SSW,202,6.0,7.0,41,0.00,,SCT220,0.00,VWS V15.00,2017-03-29 17:45:00,
2017-03-29 13:50:00,85.0,58.7,30.01,ESE,112,4.0,4.0,41,0.00,,SCT220,0.00,VWS V15.00,2017-03-29 17:50:00,
2017-03-29 13:55:00,85.0,58.7,30.01,SE,135,0.0,4.0,41,0.00,,SCT220,0.00,VWS V15.00,2017-03-29 17:55:00,
2017-03-29 14:00:00,84.0,58.5,30.01,SW,225,2.0,6.0,42,0.00,,BKN220,0.00,VWS V15.00,2017-03-29 18:00:00,
2017-03-29 14:05:00,84.0,58.5,30.00,SSE,157,8.0,12.0,42,0.00,,BKN220,0.00,VWS V15.00,2017-03-29 18:05:00,
2017-03-29 14:10:00,84.0,57.8,30.00,ESE,112,3.0,6.0,41,0.00,,BKN220,0.00,VWS V15.00,2017-03-29 18:10:00,
2017-03-29 14:15:00,85.0,58.7,30.00,ESE,112,4.0,6.0,41,0.00,,BKN220,0.00,VWS V15.00,2017-03-29 18:15:00,
2017-03-29 14:20:00,85.0,58.7,30.00,SE,135,4.0,6.0,41,0.00,,BKN220,0.00,VWS V15.00,2017-03-29 18:20:00,
2017-03-29 14:25:00,86.0,59.6,29.99,ESE,112,0.0,3.0,41,0.00,,BKN220,0.00,VWS V15.00,2017-03-29 18:25:00,
2017-03-29 14:30:00,86.0,58.2,30.00,ESE,112,8.0,10.0,39,0.00,,BKN220,0.00,VWS V15.00,2017-03-29 18:30:00,
2017-03-29 14:35:00,85.0,57.3,29.99,ESE,112,2.0,5.0,39,0.00,,BKN220,0.00,VWS V15.00,2017-03-29 18:35:00,
2017-03-29 14:40:00,83.0,56.9,29.99,ESE,112,6.0,8.0,41,0.00,,BKN220,0.00,VWS V15.00,2017-03-29 18:40:00,
2017-03-29 14:45:00,83.0,56.9,29.99,ESE,112,2.0,4.0,41,0.00,,BKN220,0.00,VWS V15.00,2017-03-29 18:45:00,
2017-03-29 14:50:00,83.0,56.9,29.99,ESE,112,5.0,5.0,41,0.00,,BKN220,0.00,VWS V15.00,2017-03-29 18:50:00,
2017-03-29 14:55:00,84.0,57.8,29.98,ESE,112,8.0,8.0,41,0.00,,BKN220,0.00,VWS V15.00,2017-03-29 18:55:00,
2017-03-29 15:00:00,84.0,58.5,29.98,ESE,112,3.0,7.0,42,0.00,,SCT045,0.00,VWS V15.00,2017-03-29 19:00:00,
2017-03-29 15:05:00,86.0,59.6,29.98,WNW,292,0.0,2.0,41,0.00,,SCT045,0.00,VWS V15.00,2017-03-29 19:05:00,
2017-03-29 15:10:00,86.0,58.2,29.98,SSE,157,6.0,9.0,39,0.00,,SCT045,0.00,VWS V15.00,2017-03-29 19:10:00,
2017-03-29 15:15:00,85.0,57.3,29.98,ESE,112,4.0,4.0,39,0.00,,SCT045,0.00,VWS V15.00,2017-03-29 19:15:00,
2017-03-29 15:20:00,85.0,57.3,29.98,ESE,112,6.0,9.0,39,0.00,,SCT045,0.00,VWS V15.00,2017-03-29 19:20:00,
2017-03-29 15:25:00,86.0,58.2,29.98,SSW,202,5.0,9.0,39,0.00,,SCT045,0.00,VWS V15.00,2017-03-29 19:25:00,
2017-03-29 15:30:00,86.0,58.2,29.98,SSE,157,0.0,6.0,39,0.00,,SCT045,0.00,VWS V15.00,2017-03-29 19:30:00,
2017-03-29 15:35:00,86.0,57.5,29.97,SSW,202,2.0,2.0,38,0.00,,SCT045,0.00,VWS V15.00,2017-03-29 19:35:00,
2017-03-29 15:36:00,86.0,57.5,29.98,SSW,202,0.0,2.0,38,0.00,,SCT045,0.00,VWS V15.00,2017-03-29 19:36:00,
2017-03-29 15:41:00,86.0,57.5,29.97,South,180,0.0,5.0,38,0.00,,SCT045,0.00,VWS V15.00,2017-03-29 19:41:00,
2017-03-29 15:46:00,88.0,59.2,29.97,WSW,247,5.0,6.0,38,0.00,,SCT045,0.00,VWS V15.00,2017-03-29 19:46:00,
2017-03-29 15:51:00,89.0,60.1,29.97,West,270,4.0,4.0,38,0.00,,SCT045,0.00,VWS V15.00,2017-03-29 19:51:00,
2017-03-29 15:56:00,89.0,60.1,29.96,South,180,2.0,9.0,38,0.00,,SCT045,0.00,VWS V15.00,2017-03-29 19:56:00,
2017-03-29 16:01:00,88.0,59.2,29.96,SSW,202,6.0,6.0,38,0.00,,SCT055,0.00,VWS V15.00,2017-03-29 20:01:00,
2017-03-29 16:06:00,89.0,59.4,29.96,SSW,202,0.0,0.0,37,0.00,,SCT055,0.00,VWS V15.00,2017-03-29 20:06:00,
2017-03-29 16:11:00,89.0,58.6,29.96,SSE,157,8.0,10.0,36,0.00,,SCT055,0.00,VWS V15.00,2017-03-29 20:11:00,